Time;durP1;ratioP1;P1;durP2;ratioP2;P2;SDS_P1;SDS_P2;PMS_P1;PMS_P2;Temp;Humidity;BMP_temperature;BMP_pressure;BME280_temperature;BME280_humidity;BME280_pressure;Samples;Min_cycle;Max_cycle;Signal;HPM_P1;HPM_P2
2021/10/28 00:12:31;;;;;;;;;;;;;;;15.59;77.98;101615.41;1038134;28;853;-65
2021/10/28 00:13:24;;;;;;;;;;;;;;;15.59;78.31;101626.16;1037470;28;812;-66
2021/10/28 00:14:14;;;;;;;;;;;;;;;15.58;77.95;101627.16;1037423;28;748;-65
2021/10/28 00:15:05;;;;;;;;;;;;;;;15.58;78.06;101619.09;1038024;28;814;-65
2021/10/28 00:15:58;;;;;;;;;;;;;;;15.58;78.43;101621.78;1037509;28;647;-65
2021/10/28 00:16:50;;;;;;;;;;;;;;;15.59;78.18;101617.22;1037353;28;785;-68
2021/10/28 00:18:37;;;;;;;;;;;;;;;15.57;78.30;101625.44;1036974;28;748;-67
2021/10/28 00:18:59;;;;;;;;;;;;;;;15.56;78.11;101626.41;1034400;28;1166;-67
2021/10/28 00:19:50;;;;;;;;;;;;;;;15.57;78.63;101614.69;1037440;28;629;-67
2021/10/28 00:20:40;;;;;;;;;;;;;;;15.57;78.33;101611.16;1037946;28;1886;-68
2021/10/28 00:21:31;;;;;;;;;;;;;;;15.57;78.44;101608.47;1039022;28;1794;-68
2021/10/28 00:22:22;;;;;;;;;;;;;;;15.56;78.47;101612.97;1040516;28;1045;-68
2021/10/28 00:23:13;;;;;;;;;;;;;;;15.55;78.22;101605.88;1036680;28;763;-68
2021/10/28 00:24:04;;;;;;;;;;;;;;;15.56;78.17;101607.59;1037822;28;685;-67
2021/10/28 00:24:54;;;;;;;;;;;;;;;15.56;78.34;101612.97;1041618;28;631;-67
2021/10/28 00:25:45;;;;;;;;;;;;;;;15.57;78.24;101613.84;1040769;28;728;-67
2021/10/28 00:26:35;;;;;;;;;;;;;;;15.55;78.19;101611.25;1040853;28;763;-68
2021/10/28 00:27:26;;;;;;;;;;;;;;;15.56;78.26;101610.28;1041280;28;930;-68
2021/10/28 00:28:18;;;;;;;;;;;;;;;15.55;78.48;101611.25;1041498;28;792;-68
2021/10/28 00:29:08;;;;;;;;;;;;;;;15.55;78.26;101605.88;1041002;28;746;-67
2021/10/28 00:29:58;;;;;;;;;;;;;;;15.55;78.39;101610.38;1041573;28;767;-67
2021/10/28 00:30:49;;;;;;;;;;;;;;;15.55;78.55;101611.25;1041227;28;968;-67
2021/10/28 00:31:39;;;;;;;;;;;;;;;15.56;78.13;101612.13;1040859;28;1971;-67
2021/10/28 00:32:30;;;;;;;;;;;;;;;15.55;77.94;101608.56;1041003;28;800;-67
2021/10/28 00:33:20;;;;;;;;;;;;;;;15.55;78.52;101605.88;1040874;28;1326;-67
2021/10/28 00:34:12;;;;;;;;;;;;;;;15.56;78.17;101612.13;1044132;28;1161;-67
2021/10/28 00:35:02;;;;;;;;;;;;;;;15.56;78.44;101604.06;1041899;28;644;-67
2021/10/28 00:35:53;;;;;;;;;;;;;;;15.54;78.18;101606.81;1041225;28;843;-66
2021/10/28 00:36:43;;;;;;;;;;;;;;;15.56;78.09;101612.13;1045695;28;734;-66
2021/10/28 00:37:33;;;;;;;;;;;;;;;15.55;78.27;101605.88;1045815;28;695;-65
2021/10/28 00:38:24;;;;;;;;;;;;;;;15.55;78.21;101607.69;1045770;28;783;-66
2021/10/28 00:39:15;;;;;;;;;;;;;;;15.55;78.24;101607.69;1045739;28;738;-67
2021/10/28 00:40:06;;;;;;;;;;;;;;;15.55;78.20;101600.50;1043177;28;1917;-67
2021/10/28 00:40:57;;;;;;;;;;;;;;;15.55;78.05;101608.56;1041057;28;1954;-67
2021/10/28 00:41:49;;;;;;;;;;;;;;;15.55;78.00;101605.88;1042699;28;1446;-67
2021/10/28 00:42:39;;;;;;;;;;;;;;;15.55;78.03;101610.38;1048603;28;713;-67
2021/10/28 00:43:30;;;;;;;;;;;;;;;15.56;78.24;101612.97;1048799;28;816;-67
2021/10/28 00:44:20;;;;;;;;;;;;;;;15.55;78.56;101599.63;1048559;28;866;-67
2021/10/28 00:45:12;;;;;;;;;;;;;;;15.56;78.16;101598.69;1048756;28;781;-67
2021/10/28 00:46:03;;;;;;;;;;;;;;;15.55;78.44;101605.88;1048582;28;962;-68
2021/10/28 00:46:53;;;;;;;;;;;;;;;15.55;78.69;101605.88;1048562;28;712;-67
2021/10/28 00:47:43;;;;;;;;;;;;;;;15.55;78.47;101597.81;1048630;28;807;-67
2021/10/28 00:48:34;;;;;;;;;;;;;;;15.55;78.15;101600.50;1049558;28;861;-67
2021/10/28 00:49:24;;;;;;;;;;;;;;;15.54;77.77;101601.44;1049486;28;785;-67
2021/10/28 00:50:15;;;;;;;;;;;;;;;15.54;78.22;101596.06;1042366;28;1991;-67
2021/10/28 00:51:07;;;;;;;;;;;;;;;15.54;78.41;101604.13;1041741;28;681;-66
2021/10/28 00:51:57;;;;;;;;;;;;;;;15.55;78.39;101599.63;1042032;28;808;-67
2021/10/28 00:52:48;;;;;;;;;;;;;;;15.53;78.27;101597.03;1041755;28;712;-67
2021/10/28 00:53:38;;;;;;;;;;;;;;;15.55;78.39;101602.31;1041589;28;721;-67
2021/10/28 00:54:29;;;;;;;;;;;;;;;15.55;78.45;101599.63;1041572;28;1859;-67
2021/10/28 00:55:20;;;;;;;;;;;;;;;15.55;78.39;101591.56;1042246;28;723;-67
2021/10/28 00:56:11;;;;;;;;;;;;;;;15.54;78.47;101597.91;1041720;28;713;-67
2021/10/28 00:57:01;;;;;;;;;;;;;;;15.52;78.35;101592.63;1042971;28;796;-67
2021/10/28 00:57:52;;;;;;;;;;;;;;;15.55;78.33;101600.50;1042857;28;1838;-67
2021/10/28 00:58:42;;;;;;;;;;;;;;;15.54;78.15;101601.44;1042179;28;876;-67
2021/10/28 00:59:32;;;;;;;;;;;;;;;15.53;78.43;101601.56;1042828;28;654;-67
2021/10/28 01:00:23;;;;;;;;;;;;;;;15.52;78.04;101598.00;1042930;28;663;-67
2021/10/28 01:01:13;;;;;;;;;;;;;;;15.51;78.54;101598.97;1042856;28;1489;-67
2021/10/28 01:02:04;;;;;;;;;;;;;;;15.53;78.12;101604.25;1042822;28;653;-66
2021/10/28 01:02:54;;;;;;;;;;;;;;;15.52;78.50;101603.38;1042887;28;778;-67
2021/10/28 01:03:45;;;;;;;;;;;;;;;15.53;78.38;101606.94;1042669;28;1010;-67
2021/10/28 01:04:35;;;;;;;;;;;;;;;15.53;78.56;101598.88;1042738;28;922;-67
2021/10/28 01:05:25;;;;;;;;;;;;;;;15.52;78.07;101599.84;1042792;28;683;-67
2021/10/28 01:06:16;;;;;;;;;;;;;;;15.51;78.43;101598.97;1042843;28;733;-67
2021/10/28 01:07:06;;;;;;;;;;;;;;;15.53;78.19;101601.56;1042848;28;842;-67
2021/10/28 01:07:57;;;;;;;;;;;;;;;15.51;78.39;101592.75;1045780;28;797;-67
2021/10/28 01:08:47;;;;;;;;;;;;;;;15.51;78.47;101598.13;1045279;28;703;-67
2021/10/28 01:09:38;;;;;;;;;;;;;;;15.52;78.64;101599.84;1045345;28;656;-67
2021/10/28 01:10:28;;;;;;;;;;;;;;;15.51;78.50;101598.97;1045184;28;763;-68
2021/10/28 01:11:19;;;;;;;;;;;;;;;15.50;78.11;101602.63;1046842;28;688;-68
2021/10/28 01:12:10;;;;;;;;;;;;;;;15.52;78.44;101600.69;1047085;28;671;-68
2021/10/28 01:13:00;;;;;;;;;;;;;;;15.51;78.51;101598.97;1045224;28;625;-67
2021/10/28 01:13:50;;;;;;;;;;;;;;;15.50;78.40;101599.94;1045278;28;672;-67
2021/10/28 01:14:41;;;;;;;;;;;;;;;15.50;78.28;101594.56;1045353;28;660;-67
2021/10/28 01:15:31;;;;;;;;;;;;;;;15.50;78.59;101597.25;1045136;28;928;-66
2021/10/28 01:16:22;;;;;;;;;;;;;;;15.51;78.52;101603.50;1045363;28;1026;-66
2021/10/28 01:17:12;;;;;;;;;;;;;;;15.50;78.14;101602.63;1045289;28;832;-67
2021/10/28 01:18:03;;;;;;;;;;;;;;;15.49;78.08;101600.91;1042798;28;712;-67
2021/10/28 01:18:53;;;;;;;;;;;;;;;15.49;78.46;101603.59;1041621;28;722;-67
2021/10/28 01:19:44;;;;;;;;;;;;;;;15.50;78.40;101607.16;1042208;28;758;-66
2021/10/28 01:20:35;;;;;;;;;;;;;;;15.49;78.57;101597.38;1041508;28;683;-67
2021/10/28 01:21:25;;;;;;;;;;;;;;;15.49;78.41;101597.38;1041840;28;748;-66
2021/10/28 01:22:16;;;;;;;;;;;;;;;15.50;78.30;101599.09;1041772;28;700;-66
2021/10/28 01:23:06;;;;;;;;;;;;;;;15.49;78.30;101603.59;1041653;28;1067;-66
2021/10/28 01:23:57;;;;;;;;;;;;;;;15.48;78.25;101596.50;1041684;28;730;-67
2021/10/28 01:24:47;;;;;;;;;;;;;;;15.47;78.70;101597.47;1044288;28;2285;-67
2021/10/28 01:25:37;;;;;;;;;;;;;;;15.48;78.21;101596.50;1046165;28;797;-67
2021/10/28 01:26:28;;;;;;;;;;;;;;;15.47;78.35;101594.78;1041871;28;704;-66
2021/10/28 01:27:18;;;;;;;;;;;;;;;15.46;78.31;101592.22;1043144;28;680;-66
2021/10/28 01:28:09;;;;;;;;;;;;;;;15.45;78.41;101596.72;1043121;28;818;-66
2021/10/28 01:28:59;;;;;;;;;;;;;;;15.47;78.57;101594.78;1041586;28;639;-67
2021/10/28 01:29:50;;;;;;;;;;;;;;;15.46;78.51;101598.44;1041630;28;918;-66
2021/10/28 01:30:41;;;;;;;;;;;;;;;15.47;78.56;101597.47;1041637;28;671;-66
2021/10/28 01:31:31;;;;;;;;;;;;;;;15.45;78.47;101599.41;1040873;28;1053;-66
2021/10/28 01:32:21;;;;;;;;;;;;;;;15.45;78.73;101599.41;1041487;28;855;-67
2021/10/28 01:33:12;;;;;;;;;;;;;;;15.45;78.65;101599.41;1041605;28;1347;-66
2021/10/28 01:34:02;;;;;;;;;;;;;;;15.47;78.32;101602.00;1041314;28;1153;-67
2021/10/28 01:34:53;;;;;;;;;;;;;;;15.45;78.23;101596.72;1041528;28;765;-67
2021/10/28 01:35:43;;;;;;;;;;;;;;;15.45;78.31;101591.34;1041278;28;735;-68
2021/10/28 01:36:34;;;;;;;;;;;;;;;15.42;78.34;101605.00;1041311;28;758;-67
2021/10/28 01:37:24;;;;;;;;;;;;;;;15.43;78.27;101595.97;1041530;28;1869;-67
2021/10/28 01:38:15;;;;;;;;;;;;;;;15.44;78.68;101602.22;1042159;28;757;-67
2021/10/28 01:39:05;;;;;;;;;;;;;;;15.45;78.72;101598.56;1037829;28;2015;-67
2021/10/28 01:39:56;;;;;;;;;;;;;;;15.43;78.48;101595.13;1037868;28;747;-67
2021/10/28 01:40:46;;;;;;;;;;;;;;;15.44;78.38;101599.53;1042484;28;1983;-67
2021/10/28 01:41:37;;;;;;;;;;;;;;;15.43;78.50;101601.34;1043446;28;1062;-67
2021/10/28 01:42:27;;;;;;;;;;;;;;;15.44;78.11;101591.47;1049899;28;852;-68
2021/10/28 01:43:17;;;;;;;;;;;;;;;15.44;78.29;101591.47;1049312;28;725;-67
2021/10/28 01:44:08;;;;;;;;;;;;;;;15.42;78.10;101588.91;1049395;28;899;-64
2021/10/28 01:44:59;;;;;;;;;;;;;;;15.41;78.41;101597.91;1049155;28;644;-65
2021/10/28 01:45:49;;;;;;;;;;;;;;;15.41;78.65;101587.19;1049155;28;869;-65
2021/10/28 01:46:40;;;;;;;;;;;;;;;15.42;78.48;101590.72;1049286;28;741;-65
2021/10/28 01:47:31;;;;;;;;;;;;;;;15.40;78.43;101585.50;1048269;28;1969;-65
2021/10/28 01:48:21;;;;;;;;;;;;;;;15.40;78.79;101588.19;1041811;28;753;-65
2021/10/28 01:49:12;;;;;;;;;;;;;;;15.41;78.70;101589.88;1041335;28;689;-65
2021/10/28 01:50:02;;;;;;;;;;;;;;;15.42;78.33;101585.34;1041645;28;649;-65
2021/10/28 01:50:53;;;;;;;;;;;;;;;15.42;78.53;101583.53;1042568;28;762;-65
2021/10/28 01:51:44;;;;;;;;;;;;;;;15.42;78.76;101582.66;1042622;28;746;-65
2021/10/28 01:52:39;;;;;;;;;;;;;;;15.40;78.35;101585.50;1041427;28;761;-65
2021/10/28 01:53:29;;;;;;;;;;;;;;;15.41;78.36;101580.94;1042018;28;722;-64
2021/10/28 01:54:21;;;;;;;;;;;;;;;15.39;78.28;101582.91;1041566;28;669;-64
2021/10/28 01:55:11;;;;;;;;;;;;;;;15.39;78.17;101573.03;1045645;28;1343;-64
2021/10/28 01:56:02;;;;;;;;;;;;;;;15.40;78.56;101582.81;1046041;28;809;-64
2021/10/28 01:56:52;;;;;;;;;;;;;;;15.40;78.71;101577.44;1046270;28;688;-64
2021/10/28 01:57:43;;;;;;;;;;;;;;;15.40;78.41;101571.22;1046095;28;1949;-64
2021/10/28 01:58:34;;;;;;;;;;;;;;;15.40;78.52;101580.13;1045664;28;673;-64
2021/10/28 01:59:24;;;;;;;;;;;;;;;15.39;78.68;101567.66;1045512;28;873;-65
2021/10/28 02:00:15;;;;;;;;;;;;;;;15.40;78.41;101574.75;1042026;28;681;-64
2021/10/28 02:01:06;;;;;;;;;;;;;;;15.41;78.43;101573.75;1039691;28;1950;-65
2021/10/28 02:01:56;;;;;;;;;;;;;;;15.40;78.42;101566.69;1041975;28;610;-64
2021/10/28 02:02:47;;;;;;;;;;;;;;;15.40;78.45;101574.75;1041649;28;755;-64
2021/10/28 02:03:37;;;;;;;;;;;;;;;15.40;78.78;101568.53;1040733;28;855;-65
2021/10/28 02:04:27;;;;;;;;;;;;;;;15.41;78.46;101572.88;1041506;28;664;-64
2021/10/28 02:05:18;;;;;;;;;;;;;;;15.41;78.64;101565.69;1041445;28;1001;-65
2021/10/28 02:06:08;;;;;;;;;;;;;;;15.40;78.27;101573.88;1041557;28;631;-64
2021/10/28 02:07:01;;;;;;;;;;;;;;;15.40;78.74;101566.69;1041586;28;781;-65
2021/10/28 02:07:51;;;;;;;;;;;;;;;15.40;78.14;101563.16;1039983;28;1904;-65
2021/10/28 02:08:42;;;;;;;;;;;;;;;15.40;78.49;101569.38;1042189;28;739;-65
2021/10/28 02:09:32;;;;;;;;;;;;;;;15.39;78.30;101564.13;1041315;28;783;-65
2021/10/28 02:10:23;;;;;;;;;;;;;;;15.38;78.84;101565.94;1041295;28;747;-65
2021/10/28 02:11:13;;;;;;;;;;;;;;;15.37;78.78;101561.53;1041740;28;688;-65
2021/10/28 02:12:04;;;;;;;;;;;;;;;15.38;78.37;101559.72;1045996;28;892;-65
2021/10/28 02:12:56;;;;;;;;;;;;;;;15.37;78.52;101564.22;1046261;28;637;-64
2021/10/28 02:13:47;;;;;;;;;;;;;;;15.37;78.70;101558.84;1046160;28;819;-65
2021/10/28 02:14:37;;;;;;;;;;;;;;;15.38;78.70;101555.19;1045482;28;753;-64
2021/10/28 02:15:28;;;;;;;;;;;;;;;15.38;78.61;101557.03;1046117;28;804;-65
2021/10/28 02:16:18;;;;;;;;;;;;;;;15.37;78.51;101556.16;1046007;28;934;-64
2021/10/28 02:17:08;;;;;;;;;;;;;;;15.37;78.53;101555.31;1042449;28;711;-65
2021/10/28 02:17:59;;;;;;;;;;;;;;;15.37;78.66;101553.47;1042551;28;787;-64
2021/10/28 02:18:49;;;;;;;;;;;;;;;15.36;78.69;101556.28;1042572;28;803;-64
2021/10/28 02:19:40;;;;;;;;;;;;;;;15.36;78.84;101551.75;1042482;28;775;-64
2021/10/28 02:20:30;;;;;;;;;;;;;;;15.36;78.70;101548.22;1042492;28;723;-65
2021/10/28 02:21:20;;;;;;;;;;;;;;;15.35;78.69;101552.72;1042655;28;633;-64
2021/10/28 02:22:12;;;;;;;;;;;;;;;15.35;78.66;101542.00;1037100;28;778;-64
2021/10/28 02:23:03;;;;;;;;;;;;;;;15.34;78.31;101548.34;1037276;28;650;-64
2021/10/28 02:23:53;;;;;;;;;;;;;;;15.35;78.63;101549.19;1041134;28;778;-65
2021/10/28 02:24:43;;;;;;;;;;;;;;;15.34;78.40;101542.97;1042530;28;702;-68
2021/10/28 02:25:34;;;;;;;;;;;;;;;15.34;78.47;101548.34;1042565;28;778;-64
2021/10/28 02:26:26;;;;;;;;;;;;;;;15.35;78.91;101552.72;1042575;28;838;-70
2021/10/28 02:27:16;;;;;;;;;;;;;;;15.37;78.41;101548.09;1040099;28;721;-67
2021/10/28 02:28:07;;;;;;;;;;;;;;;15.36;78.74;101549.09;1041346;28;802;-69
2021/10/28 02:28:57;;;;;;;;;;;;;;;15.36;78.75;101538.34;1041433;28;763;-69
2021/10/28 02:29:47;;;;;;;;;;;;;;;15.36;78.87;101546.41;1041396;28;766;-68
2021/10/28 02:30:38;;;;;;;;;;;;;;;15.34;78.65;101542.97;1041402;28;900;-68
2021/10/28 02:31:29;;;;;;;;;;;;;;;15.36;78.57;101542.84;1041237;28;1482;-68
2021/10/28 02:32:19;;;;;;;;;;;;;;;15.35;78.81;101541.13;1039613;28;685;-67
2021/10/28 02:33:10;;;;;;;;;;;;;;;15.35;78.48;101547.38;1041452;28;625;-66
2021/10/28 02:34:01;;;;;;;;;;;;;;;15.35;78.78;101541.13;1040052;28;658;-66
2021/10/28 02:34:51;;;;;;;;;;;;;;;15.33;78.24;101543.06;1041330;28;796;-66
2021/10/28 02:35:42;;;;;;;;;;;;;;;15.34;78.62;101542.09;1041322;28;793;-68
2021/10/28 02:36:32;;;;;;;;;;;;;;;15.35;78.54;101536.63;1041315;28;640;-68
2021/10/28 02:37:23;;;;;;;;;;;;;;;15.36;78.28;101545.53;1041999;28;646;-67
2021/10/28 02:38:14;;;;;;;;;;;;;;;15.36;78.88;101545.53;1040340;28;602;-67
2021/10/28 02:39:04;;;;;;;;;;;;;;;15.34;78.35;101542.09;1041974;28;921;-66
2021/10/28 02:39:54;;;;;;;;;;;;;;;15.34;78.96;101542.97;1041895;28;704;-66
2021/10/28 02:40:45;;;;;;;;;;;;;;;15.34;78.37;101536.72;1041899;28;1972;-67
2021/10/28 02:41:37;;;;;;;;;;;;;;;15.33;78.31;101533.19;1043368;28;2878;-68
2021/10/28 02:42:27;;;;;;;;;;;;;;;15.33;78.67;101533.19;1041928;28;725;-65
2021/10/28 02:43:17;;;;;;;;;;;;;;;15.34;78.54;101545.66;1041367;28;858;-67
2021/10/28 02:44:08;;;;;;;;;;;;;;;15.35;78.70;101541.13;1041415;28;700;-65
2021/10/28 02:44:58;;;;;;;;;;;;;;;15.33;78.32;101540.38;1041251;28;867;-65
2021/10/28 02:45:50;;;;;;;;;;;;;;;15.34;78.86;101534.03;1041252;28;698;-64
2021/10/28 02:46:41;;;;;;;;;;;;;;;15.33;78.75;101538.56;1042670;28;1519;-64
2021/10/28 02:47:31;;;;;;;;;;;;;;;15.33;78.46;101540.38;1039121;28;1474;-64
2021/10/28 02:48:22;;;;;;;;;;;;;;;15.34;78.70;101542.97;1040958;28;1485;-64
2021/10/28 02:49:14;;;;;;;;;;;;;;;15.33;78.34;101538.56;1045022;28;731;-64
2021/10/28 02:50:05;;;;;;;;;;;;;;;15.34;78.68;101526.00;1044739;28;613;-66
2021/10/28 02:50:55;;;;;;;;;;;;;;;15.33;78.84;101538.56;1045523;28;644;-66
2021/10/28 02:51:47;;;;;;;;;;;;;;;15.33;78.50;101529.66;1045272;28;674;-66
2021/10/28 02:52:37;;;;;;;;;;;;;;;15.33;78.98;101532.34;1045266;28;691;-67
2021/10/28 02:53:28;;;;;;;;;;;;;;;15.32;79.12;101528.78;1045320;28;945;-66
2021/10/28 02:54:19;;;;;;;;;;;;;;;15.32;78.67;101536.84;1041174;28;710;-66
2021/10/28 02:55:12;;;;;;;;;;;;;;;15.33;78.84;101526.97;1041626;28;1738;-66
2021/10/28 02:56:02;;;;;;;;;;;;;;;15.31;78.51;101527.06;1041453;28;704;-66
2021/10/28 02:56:53;;;;;;;;;;;;;;;15.31;78.61;101529.75;1041344;28;659;-66
2021/10/28 02:57:43;;;;;;;;;;;;;;;15.29;78.72;101535.22;1041358;28;669;-66
2021/10/28 02:58:33;;;;;;;;;;;;;;;15.31;78.77;101520.84;1042406;28;629;-67
2021/10/28 02:59:24;;;;;;;;;;;;;;;15.32;78.74;101523.41;1041421;28;720;-68
2021/10/28 03:00:14;;;;;;;;;;;;;;;15.31;78.71;101521.69;1041430;28;699;-67
2021/10/28 03:01:05;;;;;;;;;;;;;;;15.31;78.48;101527.06;1041382;28;1886;-67
2021/10/28 03:01:55;;;;;;;;;;;;;;;15.32;78.84;101519.88;1041546;28;656;-67
2021/10/28 03:02:46;;;;;;;;;;;;;;;15.33;78.78;101519.75;1041564;28;721;-69
2021/10/28 03:03:38;;;;;;;;;;;;;;;15.31;78.40;101519.00;1041371;28;877;-67
2021/10/28 03:04:29;;;;;;;;;;;;;;;15.31;78.49;101518.16;1042202;28;791;-69
2021/10/28 03:05:19;;;;;;;;;;;;;;;15.32;78.71;101523.41;1042436;28;2013;-70
2021/10/28 03:06:10;;;;;;;;;;;;;;;15.31;78.51;101524.38;1045396;28;848;-69
2021/10/28 03:07:00;;;;;;;;;;;;;;;15.31;79.09;101510.09;1044788;28;609;-69
2021/10/28 03:07:53;;;;;;;;;;;;;;;15.30;78.93;101519.97;1041586;28;706;-69
2021/10/28 03:08:44;;;;;;;;;;;;;;;15.30;78.85;101519.97;1040778;28;779;-69
2021/10/28 03:09:35;;;;;;;;;;;;;;;15.31;78.45;101519.00;1041267;28;765;-69
2021/10/28 03:10:26;;;;;;;;;;;;;;;15.31;78.61;101513.63;1040743;28;787;-69
2021/10/28 03:11:16;;;;;;;;;;;;;;;15.30;78.93;101517.28;1040327;28;633;-68
2021/10/28 03:12:07;;;;;;;;;;;;;;;15.32;78.39;101511.81;1041135;28;811;-68
2021/10/28 03:12:58;;;;;;;;;;;;;;;15.31;78.64;101510.09;1040916;28;641;-69
2021/10/28 03:13:49;;;;;;;;;;;;;;;15.30;78.56;101514.63;1041077;28;812;-69
2021/10/28 03:14:52;;;;;;;;;;;;;;;15.30;79.00;101511.94;1040741;28;795;-68
2021/10/28 03:15:43;;;;;;;;;;;;;;;15.29;79.06;101515.59;1043678;28;1790;-68
2021/10/28 03:18:14;;;;;;;;;;;;;;;15.27;78.85;101509.47;1045174;28;815;-69
2021/10/28 03:19:23;;;;;;;;;;;;;;;15.27;79.07;101504.09;1045624;28;793;-69
2021/10/28 03:25:42;;;;;;;;;;;;;;;15.26;78.98;101500.53;1045348;28;1950;-71
2021/10/28 03:26:33;;;;;;;;;;;;;;;15.25;78.97;101495.28;1044995;28;660;-70
2021/10/28 03:27:23;;;;;;;;;;;;;;;15.25;78.99;101492.59;1044882;28;692;-71
2021/10/28 03:28:14;;;;;;;;;;;;;;;15.25;78.95;101498.84;1044784;28;693;-71
2021/10/28 03:29:04;;;;;;;;;;;;;;;15.26;78.71;101502.38;1044782;28;900;-70
2021/10/28 03:29:58;;;;;;;;;;;;;;;15.26;78.58;101499.69;1044630;28;818;-71
2021/10/28 03:30:48;;;;;;;;;;;;;;;15.26;79.05;101494.31;1045360;28;633;-71
2021/10/28 03:31:38;;;;;;;;;;;;;;;15.24;78.59;101494.44;1044662;28;705;-66
2021/10/28 03:32:29;;;;;;;;;;;;;;;15.25;78.69;101501.53;1044706;28;694;-67
2021/10/28 03:33:22;;;;;;;;;;;;;;;15.26;78.95;101494.31;1044403;28;1453;-67
2021/10/28 03:34:13;;;;;;;;;;;;;;;15.24;78.74;101489.06;1044932;28;1245;-69
2021/10/28 03:35:05;;;;;;;;;;;;;;;15.24;78.32;101489.06;1045380;28;775;-70
2021/10/28 03:35:56;;;;;;;;;;;;;;;15.24;78.45;101493.56;1041679;28;697;-68
2021/10/28 03:36:59;;;;;;;;;;;;;;;15.23;78.85;101491.84;1041642;28;622;-69
2021/10/28 03:37:52;;;;;;;;;;;;;;;15.24;79.06;101494.44;1041290;28;732;-67
2021/10/28 03:38:54;;;;;;;;;;;;;;;15.24;78.84;101488.19;1041375;28;697;-69
2021/10/28 03:41:49;;;;;;;;;;;;;;;15.23;78.49;101489.16;1041377;28;1041;-70
2021/10/28 03:44:08;;;;;;;;;;;;;;;15.24;78.93;101489.06;1041585;28;819;-68
2021/10/28 03:49:10;;;;;;;;;;;;;;;15.22;79.06;101479.44;1044673;28;634;-68
2021/10/28 04:03:58;;;;;;;;;;;;;;;15.20;78.46;101492.97;1041504;28;626;-68
2021/10/28 04:04:44;;;;;;;;;;;;;;;15.20;78.43;101484.06;1043959;28;2013;-67
2021/10/28 04:05:50;;;;;;;;;;;;;;;15.19;78.87;101475.16;1044991;28;1038;-68
2021/10/28 04:07:07;;;;;;;;;;;;;;;15.19;79.01;101480.50;1044674;28;2088;-68
2021/10/28 04:20:41;;;;;;;;;;;;;;;15.36;78.18;101470.34;1041605;28;649;-68
2021/10/28 04:29:10;;;;;;;;;;;;;;;15.47;77.50;101460.50;1042327;28;626;-67
2021/10/28 04:30:01;;;;;;;;;;;;;;;15.48;77.50;101462.22;1040303;28;674;-67
2021/10/28 04:30:51;;;;;;;;;;;;;;;15.50;77.65;101462.09;1041942;28;652;-67
2021/10/28 04:31:42;;;;;;;;;;;;;;;15.52;77.56;101466.38;1041769;28;606;-68
2021/10/28 04:32:32;;;;;;;;;;;;;;;15.52;77.42;101463.69;1041247;28;696;-68
2021/10/28 04:33:23;;;;;;;;;;;;;;;15.55;77.29;101465.28;1041606;28;1191;-68
2021/10/28 04:34:13;;;;;;;;;;;;;;;15.55;77.76;101460.81;1041653;28;1311;-68
2021/10/28 04:35:04;;;;;;;;;;;;;;;15.56;77.26;101457.16;1041828;28;651;-68
2021/10/28 04:35:54;;;;;;;;;;;;;;;15.56;77.45;101454.47;1041834;28;923;-68
2021/10/28 04:36:44;;;;;;;;;;;;;;;15.55;77.83;101467.97;1041690;28;707;-67
2021/10/28 04:37:35;;;;;;;;;;;;;;;15.55;77.58;101459.91;1041890;28;798;-67
2021/10/28 04:38:25;;;;;;;;;;;;;;;15.54;77.48;101469.81;1041924;28;720;-67
2021/10/28 04:39:16;;;;;;;;;;;;;;;15.54;77.80;101467.13;1041904;28;688;-67
2021/10/28 04:40:06;;;;;;;;;;;;;;;15.52;77.76;101454.78;1041869;28;791;-67
2021/10/28 04:40:56;;;;;;;;;;;;;;;15.51;77.59;101467.34;1041719;28;1968;-68
2021/10/28 04:41:47;;;;;;;;;;;;;;;15.51;77.62;101464.66;1043760;28;1456;-69
2021/10/28 04:42:37;;;;;;;;;;;;;;;15.51;77.39;101463.81;1040949;28;734;-68
2021/10/28 04:43:28;;;;;;;;;;;;;;;15.52;77.57;101461.00;1038267;28;1618;-68
2021/10/28 04:44:18;;;;;;;;;;;;;;;15.53;77.68;101467.25;1044752;28;1744;-68
2021/10/28 04:45:09;;;;;;;;;;;;;;;15.50;77.79;101457.56;1044020;28;1635;-68
2021/10/28 04:45:59;;;;;;;;;;;;;;;15.51;77.46;101459.28;1045155;28;1485;-68
2021/10/28 04:46:50;;;;;;;;;;;;;;;15.51;77.81;101458.44;1043559;28;1505;-68
2021/10/28 04:47:40;;;;;;;;;;;;;;;15.50;77.83;101462.09;1045983;28;626;-68
2021/10/28 04:48:31;;;;;;;;;;;;;;;15.49;77.86;101455.88;1044408;28;1573;-69
2021/10/28 04:49:21;;;;;;;;;;;;;;;15.49;77.78;101457.69;1042794;28;692;-68
2021/10/28 04:50:11;;;;;;;;;;;;;;;15.49;77.97;101453.19;1041621;28;947;-69
2021/10/28 04:51:02;;;;;;;;;;;;;;;15.49;77.50;101461.22;1041808;28;721;-68
2021/10/28 04:51:53;;;;;;;;;;;;;;;15.50;77.97;101451.34;1041913;28;652;-66
2021/10/28 04:52:43;;;;;;;;;;;;;;;15.50;77.98;101457.56;1045475;28;1859;-67
2021/10/28 04:53:34;;;;;;;;;;;;;;;15.50;78.00;101451.34;1042389;28;719;-68
2021/10/28 04:54:24;;;;;;;;;;;;;;;15.50;77.65;101454.88;1045150;28;2545;-68
2021/10/28 04:55:14;;;;;;;;;;;;;;;15.50;78.02;101452.19;1041013;28;747;-68
2021/10/28 04:56:17;;;;;;;;;;;;;;;15.49;77.90;101453.19;1041838;28;843;-68
2021/10/28 04:57:08;;;;;;;;;;;;;;;15.53;78.27;101456.50;1041615;28;2385;-68
2021/10/28 04:57:58;;;;;;;;;;;;;;;15.55;79.05;101455.44;1045905;28;856;-69
2021/10/28 04:58:48;;;;;;;;;;;;;;;15.59;80.16;101450.66;1044636;28;689;-68
2021/10/28 04:59:39;;;;;;;;;;;;;;;15.62;81.44;101453.13;1045887;28;665;-70
2021/10/28 05:00:30;;;;;;;;;;;;;;;15.65;82.39;101452.91;1041883;28;1665;-67
2021/10/28 05:01:23;;;;;;;;;;;;;;;15.68;82.66;101446.44;1045282;28;763;-68
2021/10/28 05:02:13;;;;;;;;;;;;;;;15.70;83.14;101444.50;1045970;28;817;-66
2021/10/28 05:03:04;;;;;;;;;;;;;;;15.72;82.90;101450.59;1045108;28;1830;-67
2021/10/28 05:03:54;;;;;;;;;;;;;;;15.76;82.77;101452.09;1045010;28;1656;-69
2021/10/28 05:04:45;;;;;;;;;;;;;;;15.78;81.95;101452.78;1045114;28;1299;-70
2021/10/28 05:05:35;;;;;;;;;;;;;;;15.77;81.64;101446.56;1041259;28;1886;-68
2021/10/28 05:06:26;;;;;;;;;;;;;;;15.74;81.77;101451.34;1041267;28;976;-69
2021/10/28 05:07:16;;;;;;;;;;;;;;;15.72;81.44;101447.91;1041759;28;680;-70
2021/10/28 05:08:06;;;;;;;;;;;;;;;15.71;81.49;101454.25;1039950;28;598;-68
2021/10/28 05:08:57;;;;;;;;;;;;;;;15.71;81.78;101444.38;1041688;28;668;-71
2021/10/28 05:09:47;;;;;;;;;;;;;;;15.70;81.90;101448.03;1039931;28;707;-68
2021/10/28 05:10:38;;;;;;;;;;;;;;;15.71;81.89;101447.06;1041459;28;2898;-68
2021/10/28 05:11:29;;;;;;;;;;;;;;;15.73;81.85;101450.50;1042608;28;1898;-67
2021/10/28 05:12:19;;;;;;;;;;;;;;;15.72;82.04;101447.91;1042520;28;751;-68
2021/10/28 05:13:13;;;;;;;;;;;;;;;15.70;82.12;101444.50;1040748;28;622;-67
2021/10/28 05:14:03;;;;;;;;;;;;;;;15.68;81.84;101447.28;1041002;28;969;-68
2021/10/28 05:14:59;;;;;;;;;;;;;;;15.68;81.76;101443.75;1040846;28;657;-67
2021/10/28 05:15:50;;;;;;;;;;;;;;;15.65;81.70;101441.28;1045320;28;633;-67
2021/10/28 05:16:41;;;;;;;;;;;;;;;15.65;82.01;101444.84;1045246;28;709;-67
2021/10/28 05:17:31;;;;;;;;;;;;;;;15.63;81.33;101450.31;1045627;28;673;-67
2021/10/28 05:18:24;;;;;;;;;;;;;;;15.65;81.50;101449.34;1043872;28;697;-68
2021/10/28 05:19:14;;;;;;;;;;;;;;;15.62;81.52;101439.69;1041452;28;1789;-67
2021/10/28 05:20:05;;;;;;;;;;;;;;;15.61;81.83;101446.88;1045791;28;653;-68
2021/10/28 05:20:55;;;;;;;;;;;;;;;15.61;81.42;101446.88;1045860;28;1890;-68
2021/10/28 05:21:46;;;;;;;;;;;;;;;15.61;81.20;101449.56;1045735;28;642;-68
2021/10/28 05:22:36;;;;;;;;;;;;;;;15.59;81.64;101448.84;1045745;28;2088;-68
2021/10/28 05:23:26;;;;;;;;;;;;;;;15.59;81.46;101450.66;1045662;28;621;-68
2021/10/28 05:24:17;;;;;;;;;;;;;;;15.58;81.30;101455.22;1045760;28;644;-68
2021/10/28 05:25:07;;;;;;;;;;;;;;;15.58;81.17;101447.16;1042075;28;691;-68
2021/10/28 05:25:58;;;;;;;;;;;;;;;15.59;81.40;101462.25;1045387;28;697;-68
2021/10/28 05:26:48;;;;;;;;;;;;;;;15.58;81.33;101457.03;1045601;28;711;-68
2021/10/28 05:27:39;;;;;;;;;;;;;;;15.58;81.21;101455.22;1045749;28;719;-68
2021/10/28 05:28:29;;;;;;;;;;;;;;;15.56;80.78;101458.97;1042511;28;1673;-68
2021/10/28 05:29:20;;;;;;;;;;;;;;;15.56;80.92;101448.25;1041465;28;641;-68
2021/10/28 05:30:10;;;;;;;;;;;;;;;15.55;81.10;101447.38;1041566;28;852;-68